createdAt,value
2018-03-04T02:03:18.239Z,72.85
2018-03-04T02:05:45.780Z,66.67
2018-03-04T02:08:26.008Z,72.85
2018-03-04T02:20:25.911Z,63.50
2018-03-04T02:30:15.668Z,64.90
2018-03-04T02:32:43.207Z,67.70
2018-03-04T02:35:10.740Z,70.90
2018-03-04T02:37:38.619Z,71.77
2018-03-04T02:40:09.899Z,74.13
2018-03-04T02:42:37.452Z,72.73
2018-03-04T02:45:05.090Z,68.20
2018-03-04T02:47:32.680Z,70.45
2018-03-04T02:50:00.260Z,68.47
2018-03-04T02:52:27.932Z,72.82
2018-03-04T02:54:55.569Z,69.00
2018-03-04T02:57:23.128Z,70.40
2018-03-04T02:59:51.456Z,69.10
2018-03-04T03:02:19.040Z,71.00
2018-03-04T03:04:47.259Z,70.50
2018-03-04T03:07:16.488Z,68.62
2018-03-04T03:09:44.893Z,71.87
2018-03-04T03:12:12.477Z,72.80
2018-03-04T03:14:40.062Z,73.40
2018-03-04T03:17:07.603Z,74.20
2018-03-04T03:19:35.147Z,76.47
2018-03-04T03:22:03.339Z,75.67
2018-03-04T03:24:30.921Z,79.15
2018-03-04T03:26:58.696Z,79.25
2018-03-04T03:29:26.448Z,77.23
2018-03-04T03:31:53.996Z,79.07
2018-03-04T03:34:21.566Z,78.18
2018-03-04T03:36:49.159Z,75.77
2018-03-04T03:39:16.837Z,80.23
2018-03-04T03:41:44.389Z,75.80
2018-03-04T03:44:12.102Z,81.50
2018-03-04T03:46:39.780Z,74.53
2018-03-04T03:49:07.368Z,78.65
2018-03-04T03:51:34.942Z,73.87
2018-03-04T03:54:02.659Z,75.62
2018-03-04T03:56:30.209Z,76.78
2018-03-04T03:58:57.781Z,82.53
2018-03-04T04:01:25.331Z,75.85
2018-03-04T04:03:52.879Z,74.60
2018-03-04T04:06:21.415Z,78.85
2018-03-04T04:08:48.954Z,79.63
2018-03-04T04:11:16.498Z,75.80
2018-03-04T04:13:44.095Z,77.37
2018-03-04T04:16:11.649Z,77.90
2018-03-04T04:18:39.243Z,74.90
2018-03-04T04:21:06.859Z,75.80
2018-03-04T04:23:34.411Z,74.70
2018-03-04T04:26:01.979Z,75.83
2018-03-04T04:28:30.368Z,77.87
2018-03-04T04:30:57.917Z,76.97
2018-03-04T04:33:25.464Z,73.55
2018-03-04T04:35:54.249Z,79.10
2018-03-04T04:38:21.821Z,70.87
2018-03-04T04:40:49.376Z,70.23
2018-03-04T04:43:16.956Z,69.37
2018-03-04T04:45:44.500Z,78.28
2018-03-04T04:48:12.041Z,75.20
2018-03-04T04:50:39.931Z,74.93
2018-03-04T04:53:07.483Z,74.50
2018-03-04T04:55:35.033Z,74.57
2018-03-04T04:58:02.611Z,71.70
2018-03-04T05:00:30.155Z,75.80
2018-03-04T05:02:57.699Z,79.50
2018-03-04T05:05:25.270Z,77.43
2018-03-04T05:07:53.428Z,76.60
2018-03-04T05:10:20.971Z,78.27
2018-03-04T05:12:49.479Z,75.05
2018-03-04T05:15:17.099Z,71.10
2018-03-04T05:17:44.644Z,76.77
2018-03-04T05:20:12.222Z,79.17
2018-03-04T05:22:39.763Z,72.00
2018-03-04T05:25:07.310Z,79.27
2018-03-04T05:27:34.952Z,81.70
2018-03-04T05:30:02.544Z,82.93
2018-03-04T05:32:30.337Z,77.95
2018-03-04T05:34:58.284Z,79.93
2018-03-04T05:37:25.949Z,80.63
2018-03-04T05:39:53.523Z,80.53
2018-03-04T05:42:21.849Z,82.20
2018-03-04T05:44:49.565Z,81.77
2018-03-04T05:47:20.689Z,75.74
2018-03-04T05:49:48.324Z,76.47
2018-03-04T05:52:22.525Z,80.20
2018-03-04T05:54:54.420Z,77.87
2018-03-04T05:57:22.828Z,79.32
2018-03-04T05:59:51.165Z,82.67
2018-03-04T06:02:18.767Z,89.03
2018-03-04T06:04:46.755Z,79.37
2018-03-04T06:07:31.308Z,86.10
2018-03-04T06:18:30.186Z,74.47
2018-03-04T06:20:57.779Z,84.07
2018-03-04T06:23:25.338Z,80.77
2018-03-04T06:25:53.021Z,75.43
2018-03-04T06:30:58.747Z,80.63
2018-03-04T06:33:30.944Z,82.46
2018-03-04T06:35:58.532Z,75.80
2018-03-04T06:38:26.908Z,80.50
2018-03-04T06:40:55.343Z,73.53
2018-03-04T06:43:23.091Z,73.80
2018-03-04T06:45:50.684Z,75.33
2018-03-04T06:48:21.767Z,77.87
2018-03-04T06:50:50.344Z,75.90
2018-03-04T06:53:18.016Z,72.93
2018-03-04T06:55:45.826Z,73.13
2018-03-04T06:58:24.090Z,70.45
2018-03-04T07:03:32.863Z,69.33
2018-03-04T07:06:00.467Z,68.57
2018-03-04T07:08:28.007Z,75.43
2018-03-04T07:10:55.592Z,72.07
2018-03-04T07:13:23.333Z,71.72
2018-03-04T07:15:51.374Z,74.30
2018-03-04T07:18:19.056Z,68.60
2018-03-04T07:20:47.367Z,71.20
2018-03-04T07:23:16.471Z,67.67
2018-03-04T07:25:45.031Z,68.87
2018-03-04T07:28:13.744Z,69.67
2018-03-04T07:30:41.303Z,66.00
2018-03-04T07:33:10.664Z,69.77
2018-03-04T07:38:34.563Z,66.80
2018-03-04T07:41:02.123Z,66.77
2018-03-04T07:43:29.663Z,69.90
2018-03-04T07:45:57.508Z,68.60
2018-03-04T07:48:25.047Z,62.80
2018-03-04T07:50:52.593Z,66.25
2018-03-04T07:53:20.224Z,60.67
2018-03-04T07:55:47.911Z,61.33
2018-03-04T07:58:15.492Z,63.73
2018-03-04T08:00:43.090Z,61.43
2018-03-04T08:03:10.623Z,63.93
2018-03-04T08:05:38.164Z,62.90
2018-03-04T08:08:05.800Z,62.47
2018-03-04T08:10:33.503Z,64.07
2018-03-04T08:13:01.828Z,64.90
2018-03-04T08:15:29.429Z,61.63
2018-03-04T08:17:57.008Z,66.33
2018-03-04T08:20:24.980Z,69.60
2018-03-04T08:22:53.155Z,67.93
2018-03-04T08:25:32.692Z,67.83
2018-03-04T08:28:12.764Z,66.50
2018-03-04T08:30:40.384Z,66.80
2018-03-04T08:33:07.927Z,68.47
2018-03-04T08:35:37.749Z,67.43
2018-03-04T08:38:05.439Z,65.00
2018-03-04T08:40:33.002Z,64.70
2018-03-04T08:43:00.626Z,66.15
2018-03-04T08:45:29.024Z,66.27
2018-03-04T08:47:56.607Z,68.82
2018-03-04T08:50:25.010Z,65.17
2018-03-04T08:52:52.737Z,65.37
2018-03-04T08:55:20.292Z,65.07
2018-03-04T08:57:48.096Z,61.93
2018-03-04T09:00:15.873Z,66.85
2018-03-04T09:02:43.440Z,65.37
2018-03-04T09:05:11.784Z,64.57
2018-03-04T09:07:39.555Z,65.50
2018-03-04T09:10:08.292Z,63.33
2018-03-04T09:12:35.999Z,63.60
2018-03-04T09:15:03.686Z,64.77
2018-03-04T09:17:31.331Z,64.73
2018-03-04T09:19:58.968Z,67.53
2018-03-04T09:22:26.593Z,63.58
2018-03-04T09:24:54.880Z,63.73
2018-03-04T09:27:23.013Z,61.97
2018-03-04T09:29:50.667Z,60.43
2018-03-04T09:32:18.246Z,58.23
2018-03-04T09:34:46.253Z,62.95
2018-03-04T09:37:18.904Z,58.50
2018-03-04T09:39:46.473Z,55.27
2018-03-04T09:42:18.044Z,59.30
2018-03-04T09:44:46.991Z,57.83
2018-03-04T09:47:14.943Z,55.87
